Terminal Aerodrome Forecast
Issued by NWS

Home | Current Version | Previous Version | Text Only | Print | Product List | Glossary On
Versions: 1 2 3 4 5 6 7 8 9 10 11 12 13
437
FTUS45 KABQ 262344
TAFSAF
TAF
KSAF 262344Z 2700/2724 35010KT P6SM VCTS BKN080CB
      TEMPO 2700/2702 VRB15G25KT -SHRA BKN080
     FM270200 12010KT P6SM VCSH BKN090
     FM270500 01006KT P6SM SCT120
     FM271900 05007KT P6SM FEW090 SCT150=

USA.gov is the U.S. government's official web portal to all federal, state and local government web resources and services.